KPBI/PBI METAR and TAF weather

Enter ICAO airport designator
Station Type Date Time Source
KPBI METAR 2022/11/27 07:53 UTC NOAA

KPBI 270753Z 17006KT 10SM FEW020 FEW250 25/22 A3000 RMK AO2 SLP157 T02500222


Station Type Date Time Source
KPBI Decoded METAR 2022/11/27 07:53 UTC NOAA

PALM BEACH INTERNATIONAL, FL, United States (KPBI) 26-41N 80-06W 6M
Nov 27, 2022 - 02:53 AM EST / 2022.11.27 0753 UTC
Wind: from the S (170 degrees) at 7 MPH (6 KT):0
Visibility: 10 mile(s):0
Sky conditions: mostly clear
Temperature: 77.0 F (25.0 C)
Dew Point: 72.0 F (22.2 C)
Relative Humidity: 84%
Pressure (altimeter): 30 in. Hg (1015 hPa)
ob: KPBI 270753Z 17006KT 10SM FEW020 FEW250 25/22 A3000 RMK AO2 SLP157 T02500222
cycle: 8

Station Type Date Time Source
KPBI TAF 2022/11/27 06:26 UTC NOAA

TAF KPBI 270520Z 2706/2806 VRB05KT P6SM FEW025
FM271500 19012KT P6SM SCT025 SCT250
FM280100 VRB04KT P6SM SCT025 SCT060

Example: see airport list